createdAt,value
2018-07-19T04:14:04.915Z,99.90
2018-07-19T04:16:33.990Z,99.90
2018-07-19T04:19:03.076Z,99.90
2018-07-19T04:21:32.144Z,99.90
2018-07-19T04:26:29.860Z,99.90
2018-07-19T04:28:58.936Z,99.90
2018-07-19T04:31:27.980Z,99.90
2018-07-19T04:33:57.051Z,99.90
2018-07-19T04:36:26.137Z,99.90
2018-07-19T04:38:55.210Z,99.90
2018-07-19T04:41:24.279Z,99.90
2018-07-19T04:43:53.319Z,99.90
2018-07-19T04:46:22.440Z,99.90
2018-07-19T04:48:51.508Z,99.90
2018-07-19T04:51:20.573Z,99.90
2018-07-19T04:53:49.683Z,99.90
2018-07-19T04:56:18.728Z,99.90
2018-07-19T04:58:47.780Z,99.90
2018-07-19T05:01:16.835Z,99.90
2018-07-19T05:03:45.944Z,99.90
2018-07-19T05:06:14.977Z,99.90
2018-07-19T05:08:44.011Z,99.90
2018-07-19T05:11:13.317Z,99.90
2018-07-19T05:13:42.445Z,99.90
2018-07-19T05:16:11.538Z,99.90
2018-07-19T05:18:41.191Z,99.90
2018-07-19T05:21:10.261Z,99.90
2018-07-19T05:23:39.483Z,99.90
2018-07-19T05:26:08.603Z,99.90
2018-07-19T05:28:37.620Z,99.90
2018-07-19T05:31:06.819Z,99.90
2018-07-19T05:33:35.903Z,99.90
2018-07-19T05:36:04.967Z,99.90
2018-07-19T05:38:34.041Z,99.90
2018-07-19T05:41:03.084Z,99.90
2018-07-19T05:43:32.276Z,99.90
2018-07-19T05:48:30.047Z,99.90
2018-07-19T05:50:59.146Z,99.90
2018-07-19T05:53:28.196Z,99.90
2018-07-19T05:55:57.231Z,99.90
2018-07-19T05:58:26.292Z,99.90
2018-07-19T06:00:55.340Z,99.90
2018-07-19T06:03:24.426Z,99.90
2018-07-19T06:05:53.463Z,99.90
2018-07-19T06:08:22.675Z,99.90
2018-07-19T06:10:51.740Z,99.90
2018-07-19T06:13:20.831Z,99.90
2018-07-19T06:15:49.872Z,99.90
2018-07-19T06:18:18.968Z,99.90
2018-07-19T06:20:48.013Z,99.90
2018-07-19T06:23:17.128Z,99.90
2018-07-19T06:25:46.175Z,99.90
2018-07-19T06:28:15.471Z,99.90
2018-07-19T06:30:44.533Z,99.90
2018-07-19T06:33:13.707Z,99.90
2018-07-19T06:35:42.808Z,99.90
2018-07-19T06:38:11.927Z,99.90
2018-07-19T06:40:41.006Z,99.90
2018-07-19T06:43:10.618Z,99.90
2018-07-19T06:45:40.902Z,99.90
2018-07-19T06:48:10.003Z,99.90
2018-07-19T06:50:39.109Z,99.90
2018-07-19T06:53:08.177Z,99.90
2018-07-19T06:55:37.252Z,99.90
2018-07-19T06:58:06.560Z,99.90
2018-07-19T07:00:36.775Z,99.90
2018-07-19T07:03:06.391Z,99.90
2018-07-19T07:05:36.301Z,99.90
2018-07-19T07:08:05.452Z,99.90
2018-07-19T07:10:34.508Z,99.90
2018-07-19T07:13:03.660Z,99.90
2018-07-19T07:15:32.771Z,99.90
2018-07-19T07:18:01.834Z,99.90
2018-07-19T07:20:30.894Z,99.90
2018-07-19T07:22:59.969Z,99.90
2018-07-19T07:25:34.143Z,99.90
2018-07-19T07:28:03.721Z,99.90
2018-07-19T07:30:33.253Z,99.90
2018-07-19T07:33:02.383Z,99.90
2018-07-19T07:35:32.087Z,99.90
2018-07-19T07:38:01.242Z,99.20
2018-07-19T07:40:30.404Z,98.60
2018-07-19T07:45:28.825Z,98.10
2018-07-19T07:47:59.029Z,98.30
2018-07-19T07:50:29.087Z,97.20
2018-07-19T07:52:58.187Z,97.70
2018-07-19T07:55:27.388Z,97.30
2018-07-19T07:57:57.186Z,96.80
2018-07-19T08:00:26.339Z,96.80
2018-07-19T08:02:55.467Z,96.10
2018-07-19T08:05:24.571Z,96.40
2018-07-19T08:07:54.550Z,95.70
2018-07-19T08:10:23.891Z,95.90
2018-07-19T08:12:53.271Z,95.10
2018-07-19T08:15:23.392Z,94.40
2018-07-19T08:17:53.486Z,94.90
2018-07-19T08:20:23.415Z,94.30
2018-07-19T08:22:52.644Z,94.20
2018-07-19T08:25:24.354Z,94.00
2018-07-19T08:27:55.116Z,92.20
2018-07-19T08:30:26.115Z,93.00
2018-07-19T08:32:55.915Z,92.00
2018-07-19T08:35:25.071Z,92.20
2018-07-19T08:37:54.120Z,91.40
2018-07-19T08:40:23.471Z,91.20
2018-07-19T08:42:52.929Z,91.20
2018-07-19T08:45:22.257Z,91.90
2018-07-19T08:47:51.362Z,92.30
2018-07-19T08:50:21.227Z,91.90
2018-07-19T08:52:50.315Z,92.10
2018-07-19T08:55:19.404Z,91.00
2018-07-19T08:57:48.452Z,91.00
2018-07-19T09:00:17.541Z,90.80
2018-07-19T09:02:46.592Z,89.60
2018-07-19T09:05:15.668Z,86.80
2018-07-19T09:07:44.698Z,84.80
2018-07-19T09:10:13.996Z,83.50
2018-07-19T09:12:43.057Z,81.10
2018-07-19T09:15:12.145Z,80.00
2018-07-19T09:17:41.256Z,81.80
2018-07-19T09:20:10.289Z,79.40
2018-07-19T09:22:39.430Z,79.80
2018-07-19T09:25:08.557Z,76.90
2018-07-19T09:27:37.589Z,78.00
2018-07-19T09:30:07.356Z,77.50
2018-07-19T09:32:36.446Z,79.60
2018-07-19T09:35:05.576Z,79.10
2018-07-19T09:37:34.605Z,78.40
2018-07-19T09:40:03.704Z,76.00
2018-07-19T09:42:32.829Z,77.50
2018-07-19T09:45:01.916Z,77.00
2018-07-19T09:47:30.951Z,76.60
2018-07-19T09:50:00.047Z,75.10
2018-07-19T09:52:29.100Z,74.60
2018-07-19T09:54:59.629Z,74.40
2018-07-19T09:57:29.645Z,73.00
2018-07-19T09:59:58.791Z,74.50
2018-07-19T10:02:27.827Z,75.60
2018-07-19T10:04:56.905Z,74.10
2018-07-19T10:07:25.972Z,72.40
2018-07-19T10:09:55.058Z,72.30
2018-07-19T10:12:24.128Z,70.70
2018-07-19T10:14:53.187Z,73.00
2018-07-19T10:17:22.292Z,73.80
2018-07-19T10:19:51.340Z,72.90
2018-07-19T10:22:20.433Z,74.00
2018-07-19T10:24:49.487Z,75.40
2018-07-19T10:27:18.559Z,72.70
2018-07-19T10:29:47.628Z,72.40
2018-07-19T10:32:16.856Z,70.20
2018-07-19T10:34:45.823Z,71.80
2018-07-19T10:37:15.010Z,71.30
2018-07-19T10:39:44.112Z,70.30
2018-07-19T10:42:13.228Z,69.40
2018-07-19T10:47:11.352Z,69.40
2018-07-19T10:49:40.400Z,71.10
2018-07-19T10:52:09.429Z,72.80
2018-07-19T10:54:38.488Z,73.40
2018-07-19T10:57:07.626Z,71.40
2018-07-19T10:59:36.652Z,73.70
2018-07-19T11:02:05.896Z,70.20
2018-07-19T11:04:34.940Z,70.80
2018-07-19T11:07:04.029Z,72.30
2018-07-19T11:09:33.129Z,69.30
2018-07-19T11:16:59.470Z,69.80
2018-07-19T11:21:57.231Z,69.90
2018-07-19T11:24:26.279Z,66.20
2018-07-19T11:26:55.406Z,68.50
2018-07-19T11:29:24.454Z,68.00
2018-07-19T11:31:54.961Z,68.00
2018-07-19T11:34:24.077Z,67.50
2018-07-19T11:36:53.132Z,67.30
2018-07-19T11:39:22.176Z,65.80
2018-07-19T11:41:51.285Z,65.40
2018-07-19T11:44:20.363Z,65.50
2018-07-19T11:46:49.441Z,67.10
2018-07-19T11:49:18.601Z,67.20
2018-07-19T11:51:47.673Z,65.00
2018-07-19T11:54:16.695Z,63.80
2018-07-19T11:56:45.847Z,61.10
2018-07-19T11:59:14.892Z,60.40
2018-07-19T12:01:43.988Z,61.30
2018-07-19T12:04:13.227Z,60.00
2018-07-19T12:06:42.432Z,62.70
2018-07-19T12:09:12.428Z,62.10
2018-07-19T12:11:41.449Z,62.80
2018-07-19T12:14:10.528Z,62.70
2018-07-19T12:16:39.568Z,63.30
2018-07-19T12:19:08.632Z,63.30
2018-07-19T12:21:37.694Z,64.00
2018-07-19T12:24:06.861Z,64.80
2018-07-19T12:26:35.921Z,65.40
2018-07-19T12:29:05.076Z,64.10
2018-07-19T12:31:34.201Z,64.20
2018-07-19T12:34:03.256Z,62.90
2018-07-19T12:36:32.382Z,63.50
2018-07-19T12:39:01.466Z,63.70
2018-07-19T12:41:30.506Z,62.00
2018-07-19T12:43:59.556Z,62.60
2018-07-19T12:46:28.609Z,62.80
2018-07-19T12:48:57.731Z,62.20
2018-07-19T12:51:26.716Z,62.30
2018-07-19T12:53:55.871Z,62.80
2018-07-19T12:56:24.964Z,63.50
2018-07-19T12:58:54.024Z,64.40
2018-07-19T13:03:51.906Z,64.60
2018-07-19T13:06:21.071Z,64.30
2018-07-19T13:08:50.560Z,63.50
2018-07-19T13:11:19.650Z,61.80
2018-07-19T13:13:48.699Z,61.20
2018-07-19T13:16:17.817Z,60.50
2018-07-19T13:18:46.906Z,61.00
2018-07-19T13:21:16.058Z,61.30
2018-07-19T13:23:45.368Z,60.60
2018-07-19T13:26:14.385Z,59.40
2018-07-19T13:28:43.429Z,59.60
2018-07-19T13:31:12.512Z,61.00
2018-07-19T13:33:41.586Z,61.10
2018-07-19T13:36:10.657Z,61.40
2018-07-19T13:38:39.711Z,62.60
2018-07-19T13:41:08.814Z,63.60
2018-07-19T13:43:37.889Z,62.70
2018-07-19T13:46:06.925Z,62.50
2018-07-19T13:48:36.006Z,64.10
2018-07-19T13:51:05.048Z,61.80
2018-07-19T13:53:51.755Z,62.70
2018-07-19T13:56:20.830Z,62.60
2018-07-19T14:01:25.329Z,63.10
2018-07-19T14:03:54.573Z,63.80
2018-07-19T14:06:23.649Z,62.20
2018-07-19T14:08:52.780Z,64.40
2018-07-19T14:11:21.899Z,64.70
2018-07-19T14:13:50.957Z,64.40
2018-07-19T14:16:20.032Z,65.20
2018-07-19T14:18:49.191Z,65.90
2018-07-19T14:21:18.256Z,65.70
2018-07-19T14:23:47.304Z,68.10
2018-07-19T14:26:16.400Z,66.90
2018-07-19T14:28:45.492Z,66.90
2018-07-19T14:31:14.558Z,67.80
2018-07-19T14:33:43.583Z,67.60
2018-07-19T14:36:12.784Z,68.10
2018-07-19T14:38:41.911Z,69.00
2018-07-19T14:41:10.993Z,68.10
2018-07-19T14:43:40.156Z,68.60
2018-07-19T14:46:09.338Z,67.90
2018-07-19T14:48:38.412Z,68.90
2018-07-19T14:51:07.783Z,69.50
2018-07-19T14:53:36.896Z,70.20
2018-07-19T14:56:06.090Z,70.80
2018-07-19T14:58:35.183Z,69.00
2018-07-19T15:01:04.237Z,70.70
2018-07-19T15:03:33.308Z,70.60
2018-07-19T15:06:02.432Z,71.20
2018-07-19T15:08:31.526Z,70.40
2018-07-19T15:11:00.582Z,70.60
2018-07-19T15:13:29.682Z,71.10
2018-07-19T15:15:58.740Z,70.00
2018-07-19T15:18:27.793Z,70.80
2018-07-19T15:20:56.844Z,71.40
2018-07-19T15:23:25.924Z,70.90
2018-07-19T15:25:55.018Z,71.90
2018-07-19T15:28:24.040Z,72.30
2018-07-19T15:30:53.128Z,70.20
2018-07-19T15:33:27.470Z,71.40
2018-07-19T15:35:56.528Z,72.70
2018-07-19T15:40:55.051Z,73.00
2018-07-19T15:43:24.173Z,72.10
2018-07-19T15:45:53.328Z,71.90
2018-07-19T15:48:22.408Z,72.50
2018-07-19T15:53:20.128Z,71.40
2018-07-19T15:55:49.204Z,72.70
2018-07-19T15:58:18.227Z,73.60
2018-07-19T16:00:47.365Z,72.30
2018-07-19T16:03:16.460Z,71.50
2018-07-19T16:05:45.558Z,72.30
2018-07-19T16:08:14.591Z,72.10
2018-07-19T16:10:43.644Z,72.30
2018-07-19T16:13:12.695Z,70.60
2018-07-19T16:15:41.776Z,71.00
2018-07-19T16:18:10.823Z,72.30
2018-07-19T16:20:39.938Z,72.10
2018-07-19T16:23:08.955Z,71.30
2018-07-19T16:25:38.111Z,72.00
2018-07-19T16:28:07.173Z,71.70
2018-07-19T16:30:36.199Z,71.00
2018-07-19T16:33:05.498Z,71.10
2018-07-19T16:35:34.555Z,71.10
2018-07-19T16:38:03.629Z,71.50
2018-07-19T16:40:32.704Z,71.30
2018-07-19T16:43:01.805Z,72.30
2018-07-19T16:45:30.859Z,71.10
2018-07-19T16:47:59.913Z,70.90
2018-07-19T16:50:29.175Z,70.80
2018-07-19T16:52:58.213Z,72.00
2018-07-19T16:55:27.427Z,72.80
2018-07-19T16:57:56.476Z,73.00
2018-07-19T17:00:25.559Z,72.90
2018-07-19T17:02:54.593Z,74.30
2018-07-19T17:05:23.648Z,73.30
2018-07-19T17:07:52.909Z,73.60
2018-07-19T17:10:22.047Z,74.30
2018-07-19T17:12:51.124Z,74.20
2018-07-19T17:15:20.184Z,74.60
2018-07-19T17:17:49.292Z,74.00
2018-07-19T17:20:18.353Z,73.90
2018-07-19T17:22:47.433Z,74.20
2018-07-19T17:25:16.502Z,74.40
2018-07-19T17:27:45.633Z,74.60
2018-07-19T17:30:14.711Z,74.80
2018-07-19T17:32:43.795Z,75.30
2018-07-19T17:37:41.646Z,75.00
2018-07-19T17:40:10.689Z,75.50
2018-07-19T17:42:39.847Z,74.70
2018-07-19T17:45:09.043Z,74.40
2018-07-19T17:47:38.277Z,75.00
2018-07-19T17:50:07.837Z,75.30
2018-07-19T17:52:36.923Z,75.40
2018-07-19T17:55:05.979Z,74.80
2018-07-19T18:00:04.000Z,75.40
2018-07-19T18:02:33.956Z,75.60
2018-07-19T18:05:03.023Z,75.70
2018-07-19T18:07:32.097Z,75.70
2018-07-19T18:10:01.128Z,75.90
2018-07-19T18:12:30.212Z,76.40
2018-07-19T18:14:59.257Z,76.80
2018-07-19T18:17:28.449Z,77.50
2018-07-19T18:22:26.290Z,79.20
2018-07-19T18:24:55.444Z,79.10
2018-07-19T18:27:24.508Z,79.50
2018-07-19T18:29:53.811Z,79.60
2018-07-19T18:32:23.047Z,80.10
2018-07-19T18:34:52.110Z,80.00
2018-07-19T18:37:21.193Z,81.00
2018-07-19T18:39:50.412Z,80.70
2018-07-19T18:42:19.505Z,80.90
2018-07-19T18:44:48.676Z,81.10
2018-07-19T18:47:17.792Z,81.10
2018-07-19T18:49:47.092Z,81.70
2018-07-19T18:52:16.318Z,82.00
2018-07-19T18:54:45.946Z,82.90
2018-07-19T18:57:15.315Z,83.00
2018-07-19T18:59:44.772Z,84.10
2018-07-19T19:02:14.040Z,84.00
2018-07-19T19:04:43.199Z,84.40
2018-07-19T19:07:12.481Z,84.90
2018-07-19T19:09:41.560Z,85.50
2018-07-19T19:12:10.818Z,86.00
2018-07-19T19:14:40.125Z,87.20
2018-07-19T19:17:09.295Z,88.00
2018-07-19T19:19:38.706Z,87.70
2018-07-19T19:22:07.916Z,89.10
2018-07-19T19:24:37.298Z,90.20
2018-07-19T19:27:06.649Z,90.30
2018-07-19T19:29:35.973Z,90.40
2018-07-19T19:32:05.133Z,90.60
2018-07-19T19:34:34.501Z,90.80
2018-07-19T19:37:03.685Z,91.10
2018-07-19T19:39:32.760Z,91.60
2018-07-19T19:42:01.837Z,91.70
2018-07-19T19:44:30.948Z,91.80
2018-07-19T19:47:00.132Z,91.90
2018-07-19T19:49:29.229Z,92.10
2018-07-19T19:51:58.520Z,92.40
2018-07-19T19:54:27.865Z,92.50
2018-07-19T19:56:57.157Z,92.40
2018-07-19T19:59:26.316Z,92.50
2018-07-19T20:01:55.599Z,92.80
2018-07-19T20:04:24.709Z,93.20
2018-07-19T20:06:53.852Z,93.30
2018-07-19T20:09:23.095Z,93.70
2018-07-19T20:11:52.265Z,93.70
2018-07-19T20:16:50.534Z,94.30
2018-07-19T20:19:19.980Z,94.60
2018-07-19T20:21:49.549Z,94.50
2018-07-19T20:24:19.034Z,95.00
2018-07-19T20:26:48.396Z,95.10
2018-07-19T20:29:18.614Z,95.50
2018-07-19T20:31:47.849Z,95.60
2018-07-19T20:34:20.448Z,95.80
2018-07-19T20:36:47.032Z,96.00
2018-07-19T20:39:16.391Z,96.70
2018-07-19T20:41:48.051Z,97.30
2018-07-19T20:44:17.157Z,98.00
2018-07-19T20:46:46.332Z,97.60
2018-07-19T20:49:15.561Z,98.20
2018-07-19T20:51:45.067Z,98.00
2018-07-19T20:54:14.327Z,98.50
2018-07-19T20:56:43.399Z,98.90
2018-07-19T20:59:12.744Z,99.10
2018-07-19T21:01:42.010Z,99.40
2018-07-19T21:04:11.205Z,99.40
2018-07-19T21:06:40.317Z,99.80
2018-07-19T21:09:11.099Z,99.90
2018-07-19T21:14:10.258Z,99.90
2018-07-19T21:16:39.338Z,99.90
2018-07-19T21:19:08.429Z,99.90
2018-07-19T21:21:37.495Z,99.90
2018-07-19T21:24:06.604Z,99.90
2018-07-19T21:26:35.761Z,99.90
2018-07-19T21:29:04.820Z,99.90
2018-07-19T21:31:33.926Z,99.90
2018-07-19T21:34:03.000Z,99.90
2018-07-19T21:36:32.063Z,99.90
2018-07-19T21:39:01.130Z,99.90
2018-07-19T21:41:30.161Z,99.90
2018-07-19T21:46:27.856Z,99.90
2018-07-19T21:48:56.934Z,99.90
2018-07-19T21:51:26.134Z,99.90
2018-07-19T21:53:55.231Z,99.90
2018-07-19T21:56:24.465Z,99.90
2018-07-19T21:58:53.540Z,99.90
2018-07-19T22:01:22.637Z,99.90
2018-07-19T22:03:51.724Z,99.90
2018-07-19T22:06:20.884Z,99.90
